Aeroporto :
LOGIN :

Iscrizione | Disclaimer

   EN    FR    IT 

 










Sommario :    VFR   VFR Marginale   IFR   IFR Intensivo   IFR Molto Intensivo
Visibilità : 
Base nubi : 
>= 8 km
>= 3000ft
5 / 8 km
1000 / 3000 ft
1500m / 5 km
500 / 1000 ft
800 / 1500m
200 / 500 ft
< 800m
< 200 ft
Simboli :   Temporali  Nebbia  Neve Forte  Precipitazioni Forti  Vento > 20 kt
SIGMETs :   Varie  Temporali  Ghiacco  Turbolenza  Onda orograficha  Ceneri Vulcaniche






- Altitudine del aeroporto : 87 ft
- Codice IATA : AHO


LIEA - Fertilia Alghero

ULTIMO METAR :
  • 240820Z 29013KT 9999 SCT040 13/03 Q1009 WS R20

METARs OBSOLETI :
  • 240750Z 29010KT 250V330 9999 FEW030 SCT045 12/04 Q1009
  • 240720Z 30012KT 260V340 9999 FEW030 SCT045 12/03 Q1009
  • 240650Z 29011KT 270V330 9999 FEW030 SCT040 12/03 Q1009
  • 240620Z 29008KT 260V340 9999 FEW030 SCT045 12/03 Q1009
  • 240550Z 29008KT 260V320 9999 FEW030 BKN035 12/03 Q1009
  • 240520Z 29011KT 260V320 9999 FEW030 BKN035 12/03 Q1009
  • 240450Z AUTO 29009KT //// 9999NE // BKN043/// 12/03 Q1009
  • 240420Z AUTO 29012KT 250V320 //// 9999NE // BKN042/// 12/03 Q1008
  • 240350Z AUTO 29009KT 250V320 //// 9999NE // BKN042/// 11/03 Q1009

TAF TAF LIEA
Valido dal 24 a 06 ore il 25 a 06 ore UTC


240500Z 2406/2506 28013KT 9999 SCT025
BECMG 2406/2408 29018G30KT



MetMap, La meteo Aeronautica in un colpo d'occhio ! - Copyright ORBIFLY Dicembre 2007 - Disclaimer

ORBIFLY MET'MAP TEAM :

Programmazione e sviluppo : Alexandra Zaïnal
Concezione : Baudouin d'Aumeries
Supporto tecnico e logistico : Manuel Goepfert
Aiuto : Marc-Olivier Méhu
Aiuto per la traduzione : Arnaldo La Scala




FONTI E CREDITI :

   NOAA